sensor_id;sensor_type;location;lat;lon;timestamp;P1;durP1;ratioP1;P2;durP2;ratioP2
7306;SDS011;3694;48.732;9.248;2022-11-02T00:00:25;8.87;;;3.90;;
7306;SDS011;3694;48.732;9.248;2022-11-02T00:02:51;6.67;;;3.43;;
7306;SDS011;3694;48.732;9.248;2022-11-02T00:05:17;7.47;;;4.13;;
7306;SDS011;3694;48.732;9.248;2022-11-02T00:07:48;7.37;;;3.93;;
7306;SDS011;3694;48.732;9.248;2022-11-02T00:10:14;9.90;;;4.50;;
7306;SDS011;3694;48.732;9.248;2022-11-02T00:12:39;9.87;;;4.00;;
7306;SDS011;3694;48.732;9.248;2022-11-02T00:15:05;6.13;;;4.17;;
7306;SDS011;3694;48.732;9.248;2022-11-02T00:17:31;10.47;;;4.57;;
7306;SDS011;3694;48.732;9.248;2022-11-02T00:19:58;6.67;;;3.80;;
7306;SDS011;3694;48.732;9.248;2022-11-02T00:22:23;6.03;;;4.13;;
7306;SDS011;3694;48.732;9.248;2022-11-02T00:24:50;8.83;;;3.73;;
7306;SDS011;3694;48.732;9.248;2022-11-02T00:27:15;7.23;;;4.10;;
7306;SDS011;3694;48.732;9.248;2022-11-02T00:29:41;10.37;;;4.00;;
7306;SDS011;3694;48.732;9.248;2022-11-02T00:32:07;8.07;;;3.93;;
7306;SDS011;3694;48.732;9.248;2022-11-02T00:34:32;8.70;;;4.33;;
7306;SDS011;3694;48.732;9.248;2022-11-02T00:36:58;10.37;;;4.10;;
7306;SDS011;3694;48.732;9.248;2022-11-02T00:39:23;14.37;;;4.50;;
7306;SDS011;3694;48.732;9.248;2022-11-02T00:41:49;7.90;;;4.47;;
7306;SDS011;3694;48.732;9.248;2022-11-02T00:44:14;10.97;;;4.47;;
7306;SDS011;3694;48.732;9.248;2022-11-02T00:46:40;9.20;;;4.50;;
7306;SDS011;3694;48.732;9.248;2022-11-02T00:49:05;7.67;;;4.97;;
7306;SDS011;3694;48.732;9.248;2022-11-02T00:51:31;6.87;;;4.57;;
7306;SDS011;3694;48.732;9.248;2022-11-02T00:53:56;9.50;;;4.67;;
7306;SDS011;3694;48.732;9.248;2022-11-02T00:56:22;8.80;;;4.77;;
7306;SDS011;3694;48.732;9.248;2022-11-02T00:58:47;9.80;;;4.60;;
7306;SDS011;3694;48.732;9.248;2022-11-02T01:01:13;10.80;;;5.07;;
7306;SDS011;3694;48.732;9.248;2022-11-02T01:03:38;9.07;;;4.47;;
7306;SDS011;3694;48.732;9.248;2022-11-02T01:06:08;14.00;;;5.00;;
7306;SDS011;3694;48.732;9.248;2022-11-02T01:08:35;13.10;;;5.03;;
7306;SDS011;3694;48.732;9.248;2022-11-02T01:11:10;12.23;;;5.07;;
7306;SDS011;3694;48.732;9.248;2022-11-02T01:13:37;8.03;;;4.60;;
7306;SDS011;3694;48.732;9.248;2022-11-02T01:16:03;9.57;;;4.93;;
7306;SDS011;3694;48.732;9.248;2022-11-02T01:18:30;10.53;;;4.97;;
7306;SDS011;3694;48.732;9.248;2022-11-02T01:20:56;11.60;;;5.30;;
7306;SDS011;3694;48.732;9.248;2022-11-02T01:23:22;10.17;;;4.57;;
7306;SDS011;3694;48.732;9.248;2022-11-02T01:25:48;9.93;;;4.97;;
7306;SDS011;3694;48.732;9.248;2022-11-02T01:28:13;9.60;;;4.53;;
7306;SDS011;3694;48.732;9.248;2022-11-02T01:30:39;7.50;;;4.20;;
7306;SDS011;3694;48.732;9.248;2022-11-02T01:33:05;8.37;;;4.27;;
7306;SDS011;3694;48.732;9.248;2022-11-02T01:35:30;7.93;;;4.90;;
7306;SDS011;3694;48.732;9.248;2022-11-02T01:37:56;11.90;;;4.60;;
7306;SDS011;3694;48.732;9.248;2022-11-02T01:40:21;11.33;;;4.53;;
7306;SDS011;3694;48.732;9.248;2022-11-02T01:42:47;6.70;;;3.87;;
7306;SDS011;3694;48.732;9.248;2022-11-02T01:45:13;7.73;;;3.83;;
7306;SDS011;3694;48.732;9.248;2022-11-02T01:47:39;10.57;;;3.70;;
7306;SDS011;3694;48.732;9.248;2022-11-02T01:50:17;7.87;;;3.57;;
7306;SDS011;3694;48.732;9.248;2022-11-02T01:52:47;7.90;;;3.97;;
7306;SDS011;3694;48.732;9.248;2022-11-02T01:55:14;10.97;;;4.40;;
7306;SDS011;3694;48.732;9.248;2022-11-02T01:57:46;7.70;;;3.67;;
7306;SDS011;3694;48.732;9.248;2022-11-02T02:00:16;4.23;;;3.50;;
7306;SDS011;3694;48.732;9.248;2022-11-02T02:02:49;6.43;;;3.70;;
7306;SDS011;3694;48.732;9.248;2022-11-02T02:05:15;5.30;;;3.53;;
7306;SDS011;3694;48.732;9.248;2022-11-02T02:07:42;5.83;;;3.70;;
7306;SDS011;3694;48.732;9.248;2022-11-02T02:10:08;8.43;;;3.77;;
7306;SDS011;3694;48.732;9.248;2022-11-02T02:12:34;7.47;;;3.43;;
7306;SDS011;3694;48.732;9.248;2022-11-02T02:15:02;5.57;;;3.30;;
7306;SDS011;3694;48.732;9.248;2022-11-02T02:17:33;5.27;;;3.27;;
7306;SDS011;3694;48.732;9.248;2022-11-02T02:23:04;6.70;;;3.70;;
7306;SDS011;3694;48.732;9.248;2022-11-02T02:26:26;4.97;;;3.67;;
7306;SDS011;3694;48.732;9.248;2022-11-02T02:29:45;9.50;;;3.53;;
7306;SDS011;3694;48.732;9.248;2022-11-02T02:31:57;7.10;;;3.90;;
7306;SDS011;3694;48.732;9.248;2022-11-02T02:34:33;7.23;;;3.50;;
7306;SDS011;3694;48.732;9.248;2022-11-02T02:37:04;9.00;;;4.00;;
7306;SDS011;3694;48.732;9.248;2022-11-02T02:39:56;5.67;;;4.33;;
7306;SDS011;3694;48.732;9.248;2022-11-02T02:42:35;8.70;;;4.40;;
7306;SDS011;3694;48.732;9.248;2022-11-02T02:47:34;8.13;;;4.27;;
7306;SDS011;3694;48.732;9.248;2022-11-02T02:50:12;10.13;;;4.67;;
7306;SDS011;3694;48.732;9.248;2022-11-02T02:52:42;7.53;;;4.07;;
7306;SDS011;3694;48.732;9.248;2022-11-02T02:55:15;7.40;;;3.87;;
7306;SDS011;3694;48.732;9.248;2022-11-02T02:57:45;11.90;;;4.43;;
7306;SDS011;3694;48.732;9.248;2022-11-02T03:00:14;7.87;;;4.00;;
7306;SDS011;3694;48.732;9.248;2022-11-02T03:02:41;4.43;;;3.73;;
7306;SDS011;3694;48.732;9.248;2022-11-02T03:05:22;5.83;;;3.73;;
7306;SDS011;3694;48.732;9.248;2022-11-02T03:07:54;5.60;;;3.70;;
7306;SDS011;3694;48.732;9.248;2022-11-02T03:13:43;7.50;;;4.57;;
7306;SDS011;3694;48.732;9.248;2022-11-02T03:19:06;5.00;;;3.53;;
7306;SDS011;3694;48.732;9.248;2022-11-02T03:21:47;8.47;;;4.33;;
7306;SDS011;3694;48.732;9.248;2022-11-02T03:24:41;11.83;;;4.83;;
7306;SDS011;3694;48.732;9.248;2022-11-02T03:27:16;10.87;;;4.67;;
7306;SDS011;3694;48.732;9.248;2022-11-02T03:32:56;9.77;;;4.90;;
7306;SDS011;3694;48.732;9.248;2022-11-02T03:38:30;6.43;;;4.27;;
7306;SDS011;3694;48.732;9.248;2022-11-02T03:41:00;10.30;;;4.17;;
7306;SDS011;3694;48.732;9.248;2022-11-02T03:43:28;6.33;;;3.53;;
7306;SDS011;3694;48.732;9.248;2022-11-02T03:45:57;8.73;;;4.00;;
7306;SDS011;3694;48.732;9.248;2022-11-02T03:48:28;8.73;;;3.77;;
7306;SDS011;3694;48.732;9.248;2022-11-02T03:50:56;7.47;;;4.00;;
7306;SDS011;3694;48.732;9.248;2022-11-02T03:56:08;8.50;;;4.37;;
7306;SDS011;3694;48.732;9.248;2022-11-02T03:58:40;7.23;;;4.63;;
7306;SDS011;3694;48.732;9.248;2022-11-02T04:01:06;8.93;;;4.50;;
7306;SDS011;3694;48.732;9.248;2022-11-02T04:03:33;8.70;;;5.20;;
7306;SDS011;3694;48.732;9.248;2022-11-02T04:06:04;8.17;;;4.37;;
7306;SDS011;3694;48.732;9.248;2022-11-02T04:08:34;6.30;;;3.97;;
7306;SDS011;3694;48.732;9.248;2022-11-02T04:11:01;7.03;;;3.83;;
7306;SDS011;3694;48.732;9.248;2022-11-02T04:13:46;9.47;;;3.33;;
7306;SDS011;3694;48.732;9.248;2022-11-02T04:16:30;5.67;;;3.70;;
7306;SDS011;3694;48.732;9.248;2022-11-02T04:18:55;7.83;;;3.60;;
7306;SDS011;3694;48.732;9.248;2022-11-02T04:21:40;7.03;;;3.10;;
7306;SDS011;3694;48.732;9.248;2022-11-02T04:24:25;5.30;;;3.20;;
7306;SDS011;3694;48.732;9.248;2022-11-02T04:27:10;9.33;;;3.20;;
7306;SDS011;3694;48.732;9.248;2022-11-02T04:29:35;8.90;;;3.93;;
7306;SDS011;3694;48.732;9.248;2022-11-02T04:32:01;5.13;;;2.93;;
7306;SDS011;3694;48.732;9.248;2022-11-02T04:34:26;5.30;;;3.00;;
7306;SDS011;3694;48.732;9.248;2022-11-02T04:36:52;9.17;;;4.10;;
7306;SDS011;3694;48.732;9.248;2022-11-02T04:39:17;10.27;;;3.60;;
7306;SDS011;3694;48.732;9.248;2022-11-02T04:41:43;8.93;;;3.23;;
7306;SDS011;3694;48.732;9.248;2022-11-02T04:44:09;5.30;;;3.00;;
7306;SDS011;3694;48.732;9.248;2022-11-02T04:46:35;6.37;;;2.90;;
7306;SDS011;3694;48.732;9.248;2022-11-02T04:49:02;6.70;;;2.90;;
7306;SDS011;3694;48.732;9.248;2022-11-02T04:51:29;10.47;;;3.47;;
7306;SDS011;3694;48.732;9.248;2022-11-02T04:53:55;7.43;;;3.63;;
7306;SDS011;3694;48.732;9.248;2022-11-02T04:56:22;5.37;;;2.87;;
7306;SDS011;3694;48.732;9.248;2022-11-02T04:58:49;5.87;;;3.00;;
7306;SDS011;3694;48.732;9.248;2022-11-02T05:01:16;7.47;;;3.33;;
7306;SDS011;3694;48.732;9.248;2022-11-02T05:03:45;5.40;;;2.70;;
7306;SDS011;3694;48.732;9.248;2022-11-02T05:06:12;4.97;;;2.90;;
7306;SDS011;3694;48.732;9.248;2022-11-02T05:08:38;11.00;;;2.83;;
7306;SDS011;3694;48.732;9.248;2022-11-02T05:11:04;5.43;;;2.83;;
7306;SDS011;3694;48.732;9.248;2022-11-02T05:13:30;8.07;;;3.07;;
7306;SDS011;3694;48.732;9.248;2022-11-02T05:15:57;4.57;;;2.60;;
7306;SDS011;3694;48.732;9.248;2022-11-02T05:18:23;5.00;;;2.50;;
7306;SDS011;3694;48.732;9.248;2022-11-02T05:20:51;4.87;;;2.70;;
7306;SDS011;3694;48.732;9.248;2022-11-02T05:23:18;5.23;;;2.47;;
7306;SDS011;3694;48.732;9.248;2022-11-02T05:25:51;6.10;;;2.50;;
7306;SDS011;3694;48.732;9.248;2022-11-02T05:28:24;5.30;;;2.50;;
7306;SDS011;3694;48.732;9.248;2022-11-02T05:30:50;3.83;;;2.57;;
7306;SDS011;3694;48.732;9.248;2022-11-02T05:33:16;5.53;;;2.33;;
7306;SDS011;3694;48.732;9.248;2022-11-02T05:35:43;4.53;;;2.27;;
7306;SDS011;3694;48.732;9.248;2022-11-02T05:38:08;4.63;;;2.40;;
7306;SDS011;3694;48.732;9.248;2022-11-02T05:40:34;5.77;;;3.10;;
7306;SDS011;3694;48.732;9.248;2022-11-02T05:43:04;5.47;;;2.57;;
7306;SDS011;3694;48.732;9.248;2022-11-02T05:45:32;4.63;;;2.40;;
7306;SDS011;3694;48.732;9.248;2022-11-02T05:48:01;5.30;;;2.60;;
7306;SDS011;3694;48.732;9.248;2022-11-02T05:50:28;6.27;;;2.10;;
7306;SDS011;3694;48.732;9.248;2022-11-02T05:52:53;5.07;;;2.50;;
7306;SDS011;3694;48.732;9.248;2022-11-02T05:55:19;8.40;;;2.83;;
7306;SDS011;3694;48.732;9.248;2022-11-02T05:57:52;4.87;;;2.60;;
7306;SDS011;3694;48.732;9.248;2022-11-02T06:00:19;13.60;;;5.60;;
7306;SDS011;3694;48.732;9.248;2022-11-02T06:02:46;9.80;;;2.57;;
7306;SDS011;3694;48.732;9.248;2022-11-02T06:05:13;8.83;;;2.47;;
7306;SDS011;3694;48.732;9.248;2022-11-02T06:07:38;8.93;;;2.60;;
7306;SDS011;3694;48.732;9.248;2022-11-02T06:10:04;7.00;;;2.60;;
7306;SDS011;3694;48.732;9.248;2022-11-02T06:12:31;7.13;;;2.90;;
7306;SDS011;3694;48.732;9.248;2022-11-02T06:14:56;6.03;;;2.80;;
7306;SDS011;3694;48.732;9.248;2022-11-02T06:17:22;3.63;;;1.97;;
7306;SDS011;3694;48.732;9.248;2022-11-02T06:19:47;7.83;;;2.77;;
7306;SDS011;3694;48.732;9.248;2022-11-02T06:22:13;5.10;;;2.73;;
7306;SDS011;3694;48.732;9.248;2022-11-02T06:24:38;8.77;;;2.50;;
7306;SDS011;3694;48.732;9.248;2022-11-02T06:27:04;5.67;;;2.33;;
7306;SDS011;3694;48.732;9.248;2022-11-02T06:29:29;8.50;;;2.63;;
7306;SDS011;3694;48.732;9.248;2022-11-02T06:31:55;5.37;;;2.40;;
7306;SDS011;3694;48.732;9.248;2022-11-02T06:34:20;8.07;;;2.60;;
7306;SDS011;3694;48.732;9.248;2022-11-02T06:36:46;7.37;;;2.80;;
7306;SDS011;3694;48.732;9.248;2022-11-02T06:39:11;4.53;;;1.87;;
7306;SDS011;3694;48.732;9.248;2022-11-02T06:41:37;4.13;;;2.43;;
7306;SDS011;3694;48.732;9.248;2022-11-02T06:44:02;6.03;;;2.90;;
7306;SDS011;3694;48.732;9.248;2022-11-02T06:46:28;7.67;;;2.53;;
7306;SDS011;3694;48.732;9.248;2022-11-02T06:48:54;5.57;;;2.50;;
7306;SDS011;3694;48.732;9.248;2022-11-02T06:51:19;3.53;;;2.10;;
7306;SDS011;3694;48.732;9.248;2022-11-02T06:53:45;6.37;;;1.80;;
7306;SDS011;3694;48.732;9.248;2022-11-02T06:56:10;7.83;;;1.80;;
7306;SDS011;3694;48.732;9.248;2022-11-02T06:58:36;7.17;;;2.30;;
7306;SDS011;3694;48.732;9.248;2022-11-02T07:01:05;5.00;;;1.80;;
7306;SDS011;3694;48.732;9.248;2022-11-02T07:03:32;4.90;;;2.10;;
7306;SDS011;3694;48.732;9.248;2022-11-02T07:05:58;8.03;;;2.10;;
7306;SDS011;3694;48.732;9.248;2022-11-02T07:08:24;5.37;;;2.20;;
7306;SDS011;3694;48.732;9.248;2022-11-02T07:10:50;4.87;;;2.27;;
7306;SDS011;3694;48.732;9.248;2022-11-02T07:13:15;4.63;;;2.00;;
7306;SDS011;3694;48.732;9.248;2022-11-02T07:15:41;6.83;;;2.30;;
7306;SDS011;3694;48.732;9.248;2022-11-02T07:18:07;9.80;;;2.60;;
7306;SDS011;3694;48.732;9.248;2022-11-02T07:20:33;8.40;;;1.83;;
7306;SDS011;3694;48.732;9.248;2022-11-02T07:22:59;9.70;;;2.73;;
7306;SDS011;3694;48.732;9.248;2022-11-02T07:25:26;7.40;;;2.03;;
7306;SDS011;3694;48.732;9.248;2022-11-02T07:27:55;5.57;;;1.87;;
7306;SDS011;3694;48.732;9.248;2022-11-02T07:30:21;7.40;;;2.37;;
7306;SDS011;3694;48.732;9.248;2022-11-02T07:32:46;5.37;;;2.00;;
7306;SDS011;3694;48.732;9.248;2022-11-02T07:35:12;7.17;;;2.37;;
7306;SDS011;3694;48.732;9.248;2022-11-02T07:37:39;7.70;;;1.90;;
7306;SDS011;3694;48.732;9.248;2022-11-02T07:40:06;10.70;;;2.33;;
7306;SDS011;3694;48.732;9.248;2022-11-02T07:42:33;7.20;;;2.13;;
7306;SDS011;3694;48.732;9.248;2022-11-02T07:44:59;6.00;;;1.93;;
7306;SDS011;3694;48.732;9.248;2022-11-02T07:47:25;10.00;;;2.40;;
7306;SDS011;3694;48.732;9.248;2022-11-02T07:49:51;6.57;;;2.10;;
7306;SDS011;3694;48.732;9.248;2022-11-02T07:52:16;6.23;;;2.27;;
7306;SDS011;3694;48.732;9.248;2022-11-02T07:54:42;6.57;;;2.20;;
7306;SDS011;3694;48.732;9.248;2022-11-02T07:57:07;11.03;;;2.03;;
7306;SDS011;3694;48.732;9.248;2022-11-02T07:59:33;6.53;;;1.70;;
7306;SDS011;3694;48.732;9.248;2022-11-02T08:02:00;7.60;;;1.97;;
7306;SDS011;3694;48.732;9.248;2022-11-02T08:04:26;12.47;;;2.23;;
7306;SDS011;3694;48.732;9.248;2022-11-02T08:06:51;7.73;;;2.10;;
7306;SDS011;3694;48.732;9.248;2022-11-02T08:09:17;7.37;;;2.53;;
7306;SDS011;3694;48.732;9.248;2022-11-02T08:11:43;4.97;;;2.10;;
7306;SDS011;3694;48.732;9.248;2022-11-02T08:14:08;7.37;;;2.00;;
7306;SDS011;3694;48.732;9.248;2022-11-02T08:16:34;7.40;;;2.03;;
7306;SDS011;3694;48.732;9.248;2022-11-02T08:19:00;7.40;;;1.93;;
7306;SDS011;3694;48.732;9.248;2022-11-02T08:21:25;4.83;;;1.83;;
7306;SDS011;3694;48.732;9.248;2022-11-02T08:23:51;4.63;;;2.30;;
7306;SDS011;3694;48.732;9.248;2022-11-02T08:26:16;4.43;;;2.00;;
7306;SDS011;3694;48.732;9.248;2022-11-02T08:28:42;5.67;;;1.57;;
7306;SDS011;3694;48.732;9.248;2022-11-02T08:31:13;4.67;;;1.90;;
7306;SDS011;3694;48.732;9.248;2022-11-02T08:33:40;7.70;;;2.67;;
7306;SDS011;3694;48.732;9.248;2022-11-02T08:36:06;10.30;;;2.40;;
7306;SDS011;3694;48.732;9.248;2022-11-02T08:38:32;5.40;;;1.60;;
7306;SDS011;3694;48.732;9.248;2022-11-02T08:40:58;8.83;;;2.07;;
7306;SDS011;3694;48.732;9.248;2022-11-02T08:43:23;6.50;;;1.80;;
7306;SDS011;3694;48.732;9.248;2022-11-02T08:45:49;9.10;;;2.30;;
7306;SDS011;3694;48.732;9.248;2022-11-02T08:48:14;7.33;;;1.60;;
7306;SDS011;3694;48.732;9.248;2022-11-02T08:50:40;4.20;;;1.87;;
7306;SDS011;3694;48.732;9.248;2022-11-02T08:53:05;5.63;;;1.90;;
7306;SDS011;3694;48.732;9.248;2022-11-02T08:55:31;7.13;;;1.93;;
7306;SDS011;3694;48.732;9.248;2022-11-02T08:57:58;7.43;;;1.70;;
7306;SDS011;3694;48.732;9.248;2022-11-02T09:00:28;5.90;;;1.60;;
7306;SDS011;3694;48.732;9.248;2022-11-02T09:03:02;7.80;;;1.67;;
7306;SDS011;3694;48.732;9.248;2022-11-02T09:05:34;4.77;;;1.80;;
7306;SDS011;3694;48.732;9.248;2022-11-02T09:08:05;7.77;;;1.87;;
7306;SDS011;3694;48.732;9.248;2022-11-02T09:10:34;4.53;;;1.80;;
7306;SDS011;3694;48.732;9.248;2022-11-02T09:13:01;4.67;;;1.73;;
7306;SDS011;3694;48.732;9.248;2022-11-02T09:15:29;5.20;;;1.40;;
7306;SDS011;3694;48.732;9.248;2022-11-02T09:17:56;5.57;;;1.40;;
7306;SDS011;3694;48.732;9.248;2022-11-02T09:20:22;6.77;;;1.80;;
7306;SDS011;3694;48.732;9.248;2022-11-02T09:22:48;5.50;;;1.77;;
7306;SDS011;3694;48.732;9.248;2022-11-02T09:25:14;5.97;;;1.53;;
7306;SDS011;3694;48.732;9.248;2022-11-02T09:27:40;5.47;;;1.57;;
7306;SDS011;3694;48.732;9.248;2022-11-02T09:30:06;8.73;;;1.80;;
7306;SDS011;3694;48.732;9.248;2022-11-02T09:32:32;5.60;;;2.00;;
7306;SDS011;3694;48.732;9.248;2022-11-02T09:34:59;4.30;;;1.87;;
7306;SDS011;3694;48.732;9.248;2022-11-02T09:37:25;2.80;;;0.97;;
7306;SDS011;3694;48.732;9.248;2022-11-02T09:39:51;4.57;;;1.63;;
7306;SDS011;3694;48.732;9.248;2022-11-02T09:42:19;7.40;;;1.90;;
7306;SDS011;3694;48.732;9.248;2022-11-02T09:44:57;5.53;;;1.43;;
7306;SDS011;3694;48.732;9.248;2022-11-02T09:47:25;4.60;;;1.47;;
7306;SDS011;3694;48.732;9.248;2022-11-02T09:49:53;7.50;;;2.00;;
7306;SDS011;3694;48.732;9.248;2022-11-02T09:52:23;5.83;;;1.60;;
7306;SDS011;3694;48.732;9.248;2022-11-02T09:54:54;5.57;;;1.77;;
7306;SDS011;3694;48.732;9.248;2022-11-02T09:57:26;7.47;;;1.83;;
7306;SDS011;3694;48.732;9.248;2022-11-02T09:59:53;8.10;;;1.70;;
7306;SDS011;3694;48.732;9.248;2022-11-02T10:02:24;5.43;;;2.03;;
7306;SDS011;3694;48.732;9.248;2022-11-02T10:08:12;6.70;;;1.60;;
7306;SDS011;3694;48.732;9.248;2022-11-02T10:13:33;4.60;;;1.67;;
7306;SDS011;3694;48.732;9.248;2022-11-02T10:16:16;8.50;;;1.80;;
7306;SDS011;3694;48.732;9.248;2022-11-02T10:18:46;9.70;;;2.27;;
7306;SDS011;3694;48.732;9.248;2022-11-02T10:21:25;8.00;;;1.90;;
7306;SDS011;3694;48.732;9.248;2022-11-02T10:23:55;6.23;;;2.30;;
7306;SDS011;3694;48.732;9.248;2022-11-02T10:26:28;6.30;;;1.60;;
7306;SDS011;3694;48.732;9.248;2022-11-02T10:28:59;5.40;;;2.00;;
7306;SDS011;3694;48.732;9.248;2022-11-02T10:31:36;6.63;;;2.03;;
7306;SDS011;3694;48.732;9.248;2022-11-02T10:40:04;3.37;;;1.40;;
7306;SDS011;3694;48.732;9.248;2022-11-02T10:48:15;8.47;;;2.00;;
7306;SDS011;3694;48.732;9.248;2022-11-02T10:51:07;5.47;;;1.63;;
7306;SDS011;3694;48.732;9.248;2022-11-02T10:53:41;4.47;;;1.80;;
7306;SDS011;3694;48.732;9.248;2022-11-02T10:59:07;9.43;;;1.90;;
7306;SDS011;3694;48.732;9.248;2022-11-02T11:01:34;3.70;;;1.70;;
7306;SDS011;3694;48.732;9.248;2022-11-02T11:04:04;6.40;;;1.80;;
7306;SDS011;3694;48.732;9.248;2022-11-02T11:06:38;6.70;;;1.73;;
7306;SDS011;3694;48.732;9.248;2022-11-02T11:09:06;6.63;;;1.70;;
7306;SDS011;3694;48.732;9.248;2022-11-02T11:11:51;5.13;;;1.80;;
7306;SDS011;3694;48.732;9.248;2022-11-02T11:14:17;3.53;;;1.77;;
7306;SDS011;3694;48.732;9.248;2022-11-02T11:16:48;6.77;;;1.70;;
7306;SDS011;3694;48.732;9.248;2022-11-02T11:22:00;5.23;;;1.73;;
7306;SDS011;3694;48.732;9.248;2022-11-02T11:26:59;7.30;;;1.63;;
7306;SDS011;3694;48.732;9.248;2022-11-02T11:29:38;7.97;;;2.30;;
7306;SDS011;3694;48.732;9.248;2022-11-02T11:32:12;6.30;;;2.23;;
7306;SDS011;3694;48.732;9.248;2022-11-02T11:34:44;5.60;;;1.80;;
7306;SDS011;3694;48.732;9.248;2022-11-02T11:37:14;6.27;;;2.00;;
7306;SDS011;3694;48.732;9.248;2022-11-02T11:39:42;8.77;;;2.23;;
7306;SDS011;3694;48.732;9.248;2022-11-02T11:42:14;6.63;;;1.77;;
7306;SDS011;3694;48.732;9.248;2022-11-02T11:45:04;4.57;;;1.73;;
7306;SDS011;3694;48.732;9.248;2022-11-02T11:47:30;4.93;;;1.90;;
7306;SDS011;3694;48.732;9.248;2022-11-02T11:49:59;7.67;;;1.90;;
7306;SDS011;3694;48.732;9.248;2022-11-02T11:52:28;5.67;;;1.90;;
7306;SDS011;3694;48.732;9.248;2022-11-02T11:54:56;4.63;;;1.57;;
7306;SDS011;3694;48.732;9.248;2022-11-02T11:57:27;6.17;;;1.77;;
7306;SDS011;3694;48.732;9.248;2022-11-02T11:59:55;6.70;;;1.90;;
7306;SDS011;3694;48.732;9.248;2022-11-02T12:02:31;4.73;;;1.47;;
7306;SDS011;3694;48.732;9.248;2022-11-02T12:05:15;6.47;;;2.30;;
7306;SDS011;3694;48.732;9.248;2022-11-02T12:10:36;6.93;;;1.80;;
7306;SDS011;3694;48.732;9.248;2022-11-02T12:27:30;7.30;;;1.77;;
7306;SDS011;3694;48.732;9.248;2022-11-02T12:30:38;7.87;;;1.87;;
7306;SDS011;3694;48.732;9.248;2022-11-02T12:33:32;3.67;;;1.63;;
7306;SDS011;3694;48.732;9.248;2022-11-02T12:38:58;4.73;;;1.67;;
7306;SDS011;3694;48.732;9.248;2022-11-02T12:53:14;3.83;;;1.47;;
7306;SDS011;3694;48.732;9.248;2022-11-02T12:55:47;5.37;;;1.60;;
7306;SDS011;3694;48.732;9.248;2022-11-02T12:58:19;7.10;;;1.80;;
7306;SDS011;3694;48.732;9.248;2022-11-02T13:00:48;4.37;;;1.57;;
7306;SDS011;3694;48.732;9.248;2022-11-02T13:03:25;4.17;;;1.43;;
7306;SDS011;3694;48.732;9.248;2022-11-02T13:06:12;4.40;;;1.37;;
7306;SDS011;3694;48.732;9.248;2022-11-02T13:11:46;4.63;;;1.40;;
7306;SDS011;3694;48.732;9.248;2022-11-02T13:14:17;6.13;;;1.60;;
7306;SDS011;3694;48.732;9.248;2022-11-02T13:17:02;6.73;;;1.53;;
7306;SDS011;3694;48.732;9.248;2022-11-02T13:19:38;4.07;;;1.70;;
7306;SDS011;3694;48.732;9.248;2022-11-02T13:22:12;5.93;;;1.93;;
7306;SDS011;3694;48.732;9.248;2022-11-02T13:24:42;6.27;;;1.73;;
7306;SDS011;3694;48.732;9.248;2022-11-02T13:27:24;6.00;;;1.80;;
7306;SDS011;3694;48.732;9.248;2022-11-02T13:29:53;6.17;;;2.00;;
7306;SDS011;3694;48.732;9.248;2022-11-02T13:32:25;5.83;;;1.60;;
7306;SDS011;3694;48.732;9.248;2022-11-02T13:34:56;4.97;;;1.63;;
7306;SDS011;3694;48.732;9.248;2022-11-02T13:37:26;4.67;;;1.63;;
7306;SDS011;3694;48.732;9.248;2022-11-02T13:39:59;3.57;;;1.57;;
7306;SDS011;3694;48.732;9.248;2022-11-02T13:50:38;3.53;;;1.57;;
7306;SDS011;3694;48.732;9.248;2022-11-02T13:53:11;6.57;;;1.57;;
7306;SDS011;3694;48.732;9.248;2022-11-02T13:56:02;7.37;;;1.83;;
7306;SDS011;3694;48.732;9.248;2022-11-02T13:58:36;11.60;;;1.93;;
7306;SDS011;3694;48.732;9.248;2022-11-02T14:01:07;4.20;;;1.77;;
7306;SDS011;3694;48.732;9.248;2022-11-02T14:06:18;5.43;;;1.93;;
7306;SDS011;3694;48.732;9.248;2022-11-02T14:08:49;7.33;;;1.87;;
7306;SDS011;3694;48.732;9.248;2022-11-02T14:14:05;5.13;;;1.77;;
7306;SDS011;3694;48.732;9.248;2022-11-02T14:32:35;6.17;;;1.60;;
7306;SDS011;3694;48.732;9.248;2022-11-02T14:35:13;5.30;;;1.73;;
7306;SDS011;3694;48.732;9.248;2022-11-02T14:37:57;4.80;;;1.90;;
7306;SDS011;3694;48.732;9.248;2022-11-02T14:40:49;5.17;;;1.83;;
7306;SDS011;3694;48.732;9.248;2022-11-02T14:48:50;7.67;;;2.03;;
7306;SDS011;3694;48.732;9.248;2022-11-02T14:51:19;5.87;;;2.17;;
7306;SDS011;3694;48.732;9.248;2022-11-02T14:53:46;10.70;;;2.73;;
7306;SDS011;3694;48.732;9.248;2022-11-02T14:56:13;7.07;;;2.17;;
7306;SDS011;3694;48.732;9.248;2022-11-02T14:58:40;7.50;;;2.30;;
7306;SDS011;3694;48.732;9.248;2022-11-02T15:01:17;10.90;;;2.60;;
7306;SDS011;3694;48.732;9.248;2022-11-02T15:03:44;7.10;;;2.07;;
7306;SDS011;3694;48.732;9.248;2022-11-02T15:06:24;5.40;;;2.20;;
7306;SDS011;3694;48.732;9.248;2022-11-02T15:08:59;7.00;;;2.10;;
7306;SDS011;3694;48.732;9.248;2022-11-02T15:17:02;7.37;;;2.03;;
7306;SDS011;3694;48.732;9.248;2022-11-02T15:19:50;9.00;;;2.67;;
7306;SDS011;3694;48.732;9.248;2022-11-02T15:25:12;8.53;;;2.20;;
7306;SDS011;3694;48.732;9.248;2022-11-02T15:27:48;6.77;;;2.50;;
7306;SDS011;3694;48.732;9.248;2022-11-02T15:30:18;8.50;;;2.13;;
7306;SDS011;3694;48.732;9.248;2022-11-02T15:32:49;9.43;;;2.37;;
7306;SDS011;3694;48.732;9.248;2022-11-02T15:35:24;6.27;;;2.37;;
7306;SDS011;3694;48.732;9.248;2022-11-02T15:37:57;9.87;;;2.47;;
7306;SDS011;3694;48.732;9.248;2022-11-02T15:40:26;10.23;;;2.97;;
7306;SDS011;3694;48.732;9.248;2022-11-02T15:43:03;10.70;;;2.77;;
7306;SDS011;3694;48.732;9.248;2022-11-02T15:45:59;12.43;;;3.03;;
7306;SDS011;3694;48.732;9.248;2022-11-02T16:04:59;9.83;;;2.70;;
7306;SDS011;3694;48.732;9.248;2022-11-02T16:07:27;12.43;;;2.80;;
7306;SDS011;3694;48.732;9.248;2022-11-02T16:09:54;16.40;;;3.13;;
7306;SDS011;3694;48.732;9.248;2022-11-02T16:15:31;10.63;;;2.90;;
7306;SDS011;3694;48.732;9.248;2022-11-02T16:17:57;11.87;;;3.07;;
7306;SDS011;3694;48.732;9.248;2022-11-02T16:20:27;11.20;;;3.10;;
7306;SDS011;3694;48.732;9.248;2022-11-02T16:23:04;16.43;;;3.63;;
7306;SDS011;3694;48.732;9.248;2022-11-02T16:28:11;12.70;;;3.63;;
7306;SDS011;3694;48.732;9.248;2022-11-02T16:33:30;13.10;;;4.00;;
7306;SDS011;3694;48.732;9.248;2022-11-02T16:36:03;11.67;;;3.73;;
7306;SDS011;3694;48.732;9.248;2022-11-02T16:38:34;11.50;;;3.50;;
7306;SDS011;3694;48.732;9.248;2022-11-02T16:41:01;11.13;;;4.00;;
7306;SDS011;3694;48.732;9.248;2022-11-02T16:43:30;15.00;;;4.03;;
7306;SDS011;3694;48.732;9.248;2022-11-02T16:45:58;9.83;;;3.63;;
7306;SDS011;3694;48.732;9.248;2022-11-02T16:48:29;14.20;;;3.33;;
7306;SDS011;3694;48.732;9.248;2022-11-02T16:53:39;9.27;;;2.93;;
7306;SDS011;3694;48.732;9.248;2022-11-02T16:56:15;14.07;;;3.10;;
7306;SDS011;3694;48.732;9.248;2022-11-02T16:58:51;8.87;;;3.27;;
7306;SDS011;3694;48.732;9.248;2022-11-02T17:01:23;12.03;;;3.20;;
7306;SDS011;3694;48.732;9.248;2022-11-02T17:03:50;13.70;;;3.20;;
7306;SDS011;3694;48.732;9.248;2022-11-02T17:06:16;12.43;;;3.20;;
7306;SDS011;3694;48.732;9.248;2022-11-02T17:08:43;10.40;;;3.43;;
7306;SDS011;3694;48.732;9.248;2022-11-02T17:11:14;11.67;;;3.47;;
7306;SDS011;3694;48.732;9.248;2022-11-02T17:13:51;13.30;;;3.67;;
7306;SDS011;3694;48.732;9.248;2022-11-02T17:16:19;17.60;;;3.80;;
7306;SDS011;3694;48.732;9.248;2022-11-02T17:18:45;15.90;;;4.33;;
7306;SDS011;3694;48.732;9.248;2022-11-02T17:23:37;13.07;;;3.57;;
7306;SDS011;3694;48.732;9.248;2022-11-02T17:28:46;10.83;;;3.97;;
7306;SDS011;3694;48.732;9.248;2022-11-02T17:31:56;9.87;;;3.63;;
7306;SDS011;3694;48.732;9.248;2022-11-02T17:34:23;12.27;;;4.00;;
7306;SDS011;3694;48.732;9.248;2022-11-02T17:36:49;9.70;;;3.93;;
7306;SDS011;3694;48.732;9.248;2022-11-02T17:39:15;10.03;;;4.03;;
7306;SDS011;3694;48.732;9.248;2022-11-02T17:41:42;10.23;;;4.90;;
7306;SDS011;3694;48.732;9.248;2022-11-02T17:44:29;12.27;;;5.00;;
7306;SDS011;3694;48.732;9.248;2022-11-02T17:46:55;13.97;;;5.13;;
7306;SDS011;3694;48.732;9.248;2022-11-02T17:49:20;14.43;;;5.57;;
7306;SDS011;3694;48.732;9.248;2022-11-02T17:51:46;15.97;;;5.17;;
7306;SDS011;3694;48.732;9.248;2022-11-02T17:54:12;15.83;;;6.87;;
7306;SDS011;3694;48.732;9.248;2022-11-02T17:56:38;18.97;;;11.27;;
7306;SDS011;3694;48.732;9.248;2022-11-02T17:59:03;21.50;;;9.43;;
7306;SDS011;3694;48.732;9.248;2022-11-02T18:01:29;19.07;;;10.10;;
7306;SDS011;3694;48.732;9.248;2022-11-02T18:03:55;19.40;;;8.60;;
7306;SDS011;3694;48.732;9.248;2022-11-02T18:06:20;17.07;;;8.00;;